sensor_id;sensor_type;location;lat;lon;timestamp;P1;durP1;ratioP1;P2;durP2;ratioP2
13197;SDS011;6664;52.514;13.440;2022-11-30T00:02:28;35.17;;;19.20;;
13197;SDS011;6664;52.514;13.440;2022-11-30T00:05:16;31.60;;;18.13;;
13197;SDS011;6664;52.514;13.440;2022-11-30T00:08:05;38.43;;;19.27;;
13197;SDS011;6664;52.514;13.440;2022-11-30T00:10:50;39.30;;;20.67;;
13197;SDS011;6664;52.514;13.440;2022-11-30T00:13:38;41.13;;;19.27;;
13197;SDS011;6664;52.514;13.440;2022-11-30T00:16:24;31.80;;;18.30;;
13197;SDS011;6664;52.514;13.440;2022-11-30T00:19:11;36.93;;;19.00;;
13197;SDS011;6664;52.514;13.440;2022-11-30T00:21:59;34.60;;;19.17;;
13197;SDS011;6664;52.514;13.440;2022-11-30T00:24:44;37.00;;;19.60;;
13197;SDS011;6664;52.514;13.440;2022-11-30T00:27:31;48.67;;;19.10;;
13197;SDS011;6664;52.514;13.440;2022-11-30T00:30:17;37.57;;;19.80;;
13197;SDS011;6664;52.514;13.440;2022-11-30T00:33:03;40.03;;;19.17;;
13197;SDS011;6664;52.514;13.440;2022-11-30T00:35:55;33.27;;;17.87;;
13197;SDS011;6664;52.514;13.440;2022-11-30T00:38:45;38.73;;;20.27;;
13197;SDS011;6664;52.514;13.440;2022-11-30T00:41:31;34.23;;;19.17;;
13197;SDS011;6664;52.514;13.440;2022-11-30T00:44:16;34.03;;;19.33;;
13197;SDS011;6664;52.514;13.440;2022-11-30T00:47:02;32.50;;;18.13;;
13197;SDS011;6664;52.514;13.440;2022-11-30T00:49:47;36.13;;;20.20;;
13197;SDS011;6664;52.514;13.440;2022-11-30T00:52:35;35.17;;;19.87;;
13197;SDS011;6664;52.514;13.440;2022-11-30T00:55:21;40.97;;;19.87;;
13197;SDS011;6664;52.514;13.440;2022-11-30T00:58:06;34.30;;;19.60;;
13197;SDS011;6664;52.514;13.440;2022-11-30T01:00:54;40.00;;;21.20;;
13197;SDS011;6664;52.514;13.440;2022-11-30T01:03:40;35.20;;;19.30;;
13197;SDS011;6664;52.514;13.440;2022-11-30T01:06:26;46.57;;;21.30;;
13197;SDS011;6664;52.514;13.440;2022-11-30T01:09:12;37.33;;;19.47;;
13197;SDS011;6664;52.514;13.440;2022-11-30T01:11:57;41.53;;;20.70;;
13197;SDS011;6664;52.514;13.440;2022-11-30T01:14:43;34.23;;;19.13;;
13197;SDS011;6664;52.514;13.440;2022-11-30T01:17:30;36.80;;;20.10;;
13197;SDS011;6664;52.514;13.440;2022-11-30T01:20:15;34.40;;;18.70;;
13197;SDS011;6664;52.514;13.440;2022-11-30T01:23:05;40.00;;;20.90;;
13197;SDS011;6664;52.514;13.440;2022-11-30T01:25:54;40.40;;;19.20;;
13197;SDS011;6664;52.514;13.440;2022-11-30T01:28:40;44.30;;;20.53;;
13197;SDS011;6664;52.514;13.440;2022-11-30T01:31:28;35.53;;;18.37;;
13197;SDS011;6664;52.514;13.440;2022-11-30T01:34:16;36.33;;;19.57;;
13197;SDS011;6664;52.514;13.440;2022-11-30T01:37:03;38.07;;;20.03;;
13197;SDS011;6664;52.514;13.440;2022-11-30T01:39:48;35.97;;;19.77;;
13197;SDS011;6664;52.514;13.440;2022-11-30T01:42:43;44.10;;;21.77;;
13197;SDS011;6664;52.514;13.440;2022-11-30T01:45:30;37.40;;;19.37;;
13197;SDS011;6664;52.514;13.440;2022-11-30T01:48:16;43.10;;;22.07;;
13197;SDS011;6664;52.514;13.440;2022-11-30T01:51:03;39.50;;;20.13;;
13197;SDS011;6664;52.514;13.440;2022-11-30T01:53:51;38.23;;;19.87;;
13197;SDS011;6664;52.514;13.440;2022-11-30T01:56:43;42.80;;;19.77;;
13197;SDS011;6664;52.514;13.440;2022-11-30T01:59:36;38.63;;;19.20;;
13197;SDS011;6664;52.514;13.440;2022-11-30T02:02:24;39.20;;;19.57;;
13197;SDS011;6664;52.514;13.440;2022-11-30T02:05:16;40.23;;;20.20;;
13197;SDS011;6664;52.514;13.440;2022-11-30T02:08:02;38.30;;;20.17;;
13197;SDS011;6664;52.514;13.440;2022-11-30T02:10:56;42.53;;;21.30;;
13197;SDS011;6664;52.514;13.440;2022-11-30T02:17:14;36.70;;;19.57;;
13197;SDS011;6664;52.514;13.440;2022-11-30T02:20:38;41.77;;;20.63;;
13197;SDS011;6664;52.514;13.440;2022-11-30T02:26:42;34.03;;;19.57;;
13197;SDS011;6664;52.514;13.440;2022-11-30T02:29:38;33.90;;;18.63;;
13197;SDS011;6664;52.514;13.440;2022-11-30T02:32:31;37.00;;;20.70;;
13197;SDS011;6664;52.514;13.440;2022-11-30T02:35:23;37.67;;;21.07;;
13197;SDS011;6664;52.514;13.440;2022-11-30T02:38:11;40.57;;;20.90;;
13197;SDS011;6664;52.514;13.440;2022-11-30T02:40:57;43.90;;;20.80;;
13197;SDS011;6664;52.514;13.440;2022-11-30T02:43:43;44.17;;;22.33;;
13197;SDS011;6664;52.514;13.440;2022-11-30T02:46:51;36.37;;;20.30;;
13197;SDS011;6664;52.514;13.440;2022-11-30T02:49:44;32.50;;;18.87;;
13197;SDS011;6664;52.514;13.440;2022-11-30T02:52:33;37.17;;;20.10;;
13197;SDS011;6664;52.514;13.440;2022-11-30T02:55:20;38.30;;;20.27;;
13197;SDS011;6664;52.514;13.440;2022-11-30T02:58:08;38.60;;;20.60;;
13197;SDS011;6664;52.514;13.440;2022-11-30T03:00:56;43.23;;;19.17;;
13197;SDS011;6664;52.514;13.440;2022-11-30T03:03:41;39.53;;;19.43;;
13197;SDS011;6664;52.514;13.440;2022-11-30T03:06:28;38.20;;;21.27;;
13197;SDS011;6664;52.514;13.440;2022-11-30T03:09:14;41.77;;;20.53;;
13197;SDS011;6664;52.514;13.440;2022-11-30T03:11:59;35.23;;;19.47;;
13197;SDS011;6664;52.514;13.440;2022-11-30T03:14:49;47.40;;;21.53;;
13197;SDS011;6664;52.514;13.440;2022-11-30T03:17:36;33.17;;;17.30;;
13197;SDS011;6664;52.514;13.440;2022-11-30T03:20:24;35.33;;;19.93;;
13197;SDS011;6664;52.514;13.440;2022-11-30T03:23:12;39.77;;;19.33;;
13197;SDS011;6664;52.514;13.440;2022-11-30T03:25:59;44.33;;;19.80;;
13197;SDS011;6664;52.514;13.440;2022-11-30T03:28:45;34.77;;;19.17;;
13197;SDS011;6664;52.514;13.440;2022-11-30T03:31:33;37.60;;;20.57;;
13197;SDS011;6664;52.514;13.440;2022-11-30T03:34:23;35.10;;;20.47;;
13197;SDS011;6664;52.514;13.440;2022-11-30T03:37:11;50.93;;;18.40;;
13197;SDS011;6664;52.514;13.440;2022-11-30T03:39:56;39.43;;;19.70;;
13197;SDS011;6664;52.514;13.440;2022-11-30T03:42:44;46.27;;;21.07;;
13197;SDS011;6664;52.514;13.440;2022-11-30T03:45:30;39.53;;;19.93;;
13197;SDS011;6664;52.514;13.440;2022-11-30T03:48:15;39.20;;;20.40;;
13197;SDS011;6664;52.514;13.440;2022-11-30T03:51:01;36.83;;;19.70;;
13197;SDS011;6664;52.514;13.440;2022-11-30T03:53:48;41.17;;;21.07;;
13197;SDS011;6664;52.514;13.440;2022-11-30T03:56:33;43.03;;;20.53;;
13197;SDS011;6664;52.514;13.440;2022-11-30T03:59:18;37.13;;;19.90;;
13197;SDS011;6664;52.514;13.440;2022-11-30T04:02:04;44.00;;;21.70;;
13197;SDS011;6664;52.514;13.440;2022-11-30T04:04:50;40.23;;;21.83;;
13197;SDS011;6664;52.514;13.440;2022-11-30T04:07:38;38.60;;;19.70;;
13197;SDS011;6664;52.514;13.440;2022-11-30T04:10:23;39.80;;;20.40;;
13197;SDS011;6664;52.514;13.440;2022-11-30T04:13:09;38.53;;;20.13;;
13197;SDS011;6664;52.514;13.440;2022-11-30T04:15:54;43.37;;;20.70;;
13197;SDS011;6664;52.514;13.440;2022-11-30T04:18:40;39.90;;;21.27;;
13197;SDS011;6664;52.514;13.440;2022-11-30T04:21:26;39.33;;;19.20;;
13197;SDS011;6664;52.514;13.440;2022-11-30T04:24:16;42.80;;;20.77;;
13197;SDS011;6664;52.514;13.440;2022-11-30T04:27:01;38.37;;;21.90;;
13197;SDS011;6664;52.514;13.440;2022-11-30T04:29:47;42.73;;;21.10;;
13197;SDS011;6664;52.514;13.440;2022-11-30T04:32:32;36.73;;;21.03;;
13197;SDS011;6664;52.514;13.440;2022-11-30T04:35:20;40.93;;;21.87;;
13197;SDS011;6664;52.514;13.440;2022-11-30T04:38:07;42.40;;;21.27;;
13197;SDS011;6664;52.514;13.440;2022-11-30T04:40:52;37.47;;;20.20;;
13197;SDS011;6664;52.514;13.440;2022-11-30T04:43:38;41.30;;;21.63;;
13197;SDS011;6664;52.514;13.440;2022-11-30T04:46:24;39.33;;;21.50;;
13197;SDS011;6664;52.514;13.440;2022-11-30T04:49:09;43.13;;;21.87;;
13197;SDS011;6664;52.514;13.440;2022-11-30T04:52:01;39.83;;;20.67;;
13197;SDS011;6664;52.514;13.440;2022-11-30T04:54:51;35.97;;;20.50;;
13197;SDS011;6664;52.514;13.440;2022-11-30T04:57:37;46.20;;;24.40;;
13197;SDS011;6664;52.514;13.440;2022-11-30T05:00:22;47.40;;;21.90;;
13197;SDS011;6664;52.514;13.440;2022-11-30T05:03:08;35.70;;;20.20;;
13197;SDS011;6664;52.514;13.440;2022-11-30T05:05:53;35.93;;;19.63;;
13197;SDS011;6664;52.514;13.440;2022-11-30T05:08:39;40.33;;;20.20;;
13197;SDS011;6664;52.514;13.440;2022-11-30T05:11:26;43.10;;;21.63;;
13197;SDS011;6664;52.514;13.440;2022-11-30T05:14:12;36.43;;;20.20;;
13197;SDS011;6664;52.514;13.440;2022-11-30T05:17:00;38.90;;;20.50;;
13197;SDS011;6664;52.514;13.440;2022-11-30T05:19:45;41.17;;;20.00;;
13197;SDS011;6664;52.514;13.440;2022-11-30T05:22:36;40.80;;;20.60;;
13197;SDS011;6664;52.514;13.440;2022-11-30T05:25:24;39.30;;;22.00;;
13197;SDS011;6664;52.514;13.440;2022-11-30T05:28:09;44.70;;;23.13;;
13197;SDS011;6664;52.514;13.440;2022-11-30T05:31:00;42.50;;;20.40;;
13197;SDS011;6664;52.514;13.440;2022-11-30T05:33:51;45.90;;;21.77;;
13197;SDS011;6664;52.514;13.440;2022-11-30T05:36:37;38.73;;;20.60;;
13197;SDS011;6664;52.514;13.440;2022-11-30T05:39:22;38.03;;;21.47;;
13197;SDS011;6664;52.514;13.440;2022-11-30T05:42:10;39.60;;;20.03;;
13197;SDS011;6664;52.514;13.440;2022-11-30T05:44:55;38.70;;;20.97;;
13197;SDS011;6664;52.514;13.440;2022-11-30T05:47:41;37.87;;;21.63;;
13197;SDS011;6664;52.514;13.440;2022-11-30T05:50:26;45.87;;;20.33;;
13197;SDS011;6664;52.514;13.440;2022-11-30T05:53:12;42.10;;;20.60;;
13197;SDS011;6664;52.514;13.440;2022-11-30T05:56:00;47.80;;;23.13;;
13197;SDS011;6664;52.514;13.440;2022-11-30T05:58:50;45.23;;;21.60;;
13197;SDS011;6664;52.514;13.440;2022-11-30T06:01:35;38.30;;;21.07;;
13197;SDS011;6664;52.514;13.440;2022-11-30T06:04:24;42.53;;;21.10;;
13197;SDS011;6664;52.514;13.440;2022-11-30T06:07:10;43.10;;;21.20;;
13197;SDS011;6664;52.514;13.440;2022-11-30T06:09:55;39.47;;;20.80;;
13197;SDS011;6664;52.514;13.440;2022-11-30T06:12:41;42.83;;;21.70;;
13197;SDS011;6664;52.514;13.440;2022-11-30T06:15:26;40.17;;;20.33;;
13197;SDS011;6664;52.514;13.440;2022-11-30T06:18:12;47.97;;;21.77;;
13197;SDS011;6664;52.514;13.440;2022-11-30T06:20:59;36.60;;;19.33;;
13197;SDS011;6664;52.514;13.440;2022-11-30T06:23:49;38.77;;;19.80;;
13197;SDS011;6664;52.514;13.440;2022-11-30T06:26:35;39.20;;;20.20;;
13197;SDS011;6664;52.514;13.440;2022-11-30T06:29:21;42.83;;;21.23;;
13197;SDS011;6664;52.514;13.440;2022-11-30T06:32:06;35.17;;;20.00;;
13197;SDS011;6664;52.514;13.440;2022-11-30T06:34:52;40.93;;;21.20;;
13197;SDS011;6664;52.514;13.440;2022-11-30T06:37:38;39.43;;;20.63;;
13197;SDS011;6664;52.514;13.440;2022-11-30T06:40:23;41.83;;;20.23;;
13197;SDS011;6664;52.514;13.440;2022-11-30T06:43:11;34.27;;;20.47;;
13197;SDS011;6664;52.514;13.440;2022-11-30T06:45:59;44.00;;;22.27;;
13197;SDS011;6664;52.514;13.440;2022-11-30T06:48:47;40.77;;;21.43;;
13197;SDS011;6664;52.514;13.440;2022-11-30T06:51:34;36.77;;;20.20;;
13197;SDS011;6664;52.514;13.440;2022-11-30T06:54:23;42.20;;;20.57;;
13197;SDS011;6664;52.514;13.440;2022-11-30T06:57:09;44.40;;;20.90;;
13197;SDS011;6664;52.514;13.440;2022-11-30T06:59:54;32.93;;;18.70;;
13197;SDS011;6664;52.514;13.440;2022-11-30T07:02:40;36.63;;;19.17;;
13197;SDS011;6664;52.514;13.440;2022-11-30T07:05:26;36.60;;;20.07;;
13197;SDS011;6664;52.514;13.440;2022-11-30T07:08:12;36.43;;;20.10;;
13197;SDS011;6664;52.514;13.440;2022-11-30T07:11:02;36.30;;;20.13;;
13197;SDS011;6664;52.514;13.440;2022-11-30T07:13:48;35.10;;;20.33;;
13197;SDS011;6664;52.514;13.440;2022-11-30T07:16:36;39.50;;;20.60;;
13197;SDS011;6664;52.514;13.440;2022-11-30T07:19:24;36.50;;;19.00;;
13197;SDS011;6664;52.514;13.440;2022-11-30T07:22:12;40.80;;;20.63;;
13197;SDS011;6664;52.514;13.440;2022-11-30T07:24:58;36.50;;;21.17;;
13197;SDS011;6664;52.514;13.440;2022-11-30T07:28:02;39.10;;;19.43;;
13197;SDS011;6664;52.514;13.440;2022-11-30T07:30:47;44.60;;;20.30;;
13197;SDS011;6664;52.514;13.440;2022-11-30T07:33:33;36.57;;;18.00;;
13197;SDS011;6664;52.514;13.440;2022-11-30T07:36:19;36.17;;;18.97;;
13197;SDS011;6664;52.514;13.440;2022-11-30T07:39:05;40.50;;;21.13;;
13197;SDS011;6664;52.514;13.440;2022-11-30T07:41:53;43.33;;;20.53;;
13197;SDS011;6664;52.514;13.440;2022-11-30T07:44:39;38.77;;;20.07;;
13197;SDS011;6664;52.514;13.440;2022-11-30T07:47:26;34.57;;;17.93;;
13197;SDS011;6664;52.514;13.440;2022-11-30T07:50:12;39.47;;;20.63;;
13197;SDS011;6664;52.514;13.440;2022-11-30T07:52:57;36.33;;;19.60;;
13197;SDS011;6664;52.514;13.440;2022-11-30T07:55:43;35.93;;;19.13;;
13197;SDS011;6664;52.514;13.440;2022-11-30T07:58:36;36.33;;;19.27;;
13197;SDS011;6664;52.514;13.440;2022-11-30T08:01:22;38.13;;;20.63;;
13197;SDS011;6664;52.514;13.440;2022-11-30T08:04:11;55.17;;;21.17;;
13197;SDS011;6664;52.514;13.440;2022-11-30T08:06:57;30.70;;;18.83;;
13197;SDS011;6664;52.514;13.440;2022-11-30T08:09:43;33.87;;;17.70;;
13197;SDS011;6664;52.514;13.440;2022-11-30T08:12:28;32.63;;;16.73;;
13197;SDS011;6664;52.514;13.440;2022-11-30T08:15:16;38.67;;;21.23;;
13197;SDS011;6664;52.514;13.440;2022-11-30T08:18:05;41.33;;;22.27;;
13197;SDS011;6664;52.514;13.440;2022-11-30T08:21:01;37.23;;;19.33;;
13197;SDS011;6664;52.514;13.440;2022-11-30T08:23:49;34.07;;;19.13;;
13197;SDS011;6664;52.514;13.440;2022-11-30T08:26:41;39.27;;;20.27;;
13197;SDS011;6664;52.514;13.440;2022-11-30T08:29:28;40.63;;;21.00;;
13197;SDS011;6664;52.514;13.440;2022-11-30T08:32:14;40.67;;;21.17;;
13197;SDS011;6664;52.514;13.440;2022-11-30T08:35:02;34.63;;;19.70;;
13197;SDS011;6664;52.514;13.440;2022-11-30T08:37:48;40.83;;;20.67;;
13197;SDS011;6664;52.514;13.440;2022-11-30T08:40:33;36.13;;;19.23;;
13197;SDS011;6664;52.514;13.440;2022-11-30T08:43:19;40.43;;;19.53;;
13197;SDS011;6664;52.514;13.440;2022-11-30T08:46:05;36.80;;;19.03;;
13197;SDS011;6664;52.514;13.440;2022-11-30T08:49:14;33.80;;;18.10;;
13197;SDS011;6664;52.514;13.440;2022-11-30T08:52:08;34.23;;;19.47;;
13197;SDS011;6664;52.514;13.440;2022-11-30T08:55:02;34.07;;;16.33;;
13197;SDS011;6664;52.514;13.440;2022-11-30T08:57:47;38.33;;;19.50;;
13197;SDS011;6664;52.514;13.440;2022-11-30T09:00:33;34.20;;;17.60;;
13197;SDS011;6664;52.514;13.440;2022-11-30T09:03:18;37.23;;;19.20;;
13197;SDS011;6664;52.514;13.440;2022-11-30T09:06:08;35.53;;;18.03;;
13197;SDS011;6664;52.514;13.440;2022-11-30T09:09:01;37.73;;;19.40;;
13197;SDS011;6664;52.514;13.440;2022-11-30T09:11:47;38.13;;;19.27;;
13197;SDS011;6664;52.514;13.440;2022-11-30T09:14:32;40.37;;;19.53;;
13197;SDS011;6664;52.514;13.440;2022-11-30T09:17:20;38.93;;;20.73;;
13197;SDS011;6664;52.514;13.440;2022-11-30T09:20:08;35.20;;;16.73;;
13197;SDS011;6664;52.514;13.440;2022-11-30T09:22:54;30.33;;;17.67;;
13197;SDS011;6664;52.514;13.440;2022-11-30T09:25:42;38.93;;;20.07;;
13197;SDS011;6664;52.514;13.440;2022-11-30T09:28:28;32.80;;;17.50;;
13197;SDS011;6664;52.514;13.440;2022-11-30T09:31:18;40.93;;;19.63;;
13197;SDS011;6664;52.514;13.440;2022-11-30T09:34:08;33.47;;;18.67;;
13197;SDS011;6664;52.514;13.440;2022-11-30T09:36:55;31.97;;;18.37;;
13197;SDS011;6664;52.514;13.440;2022-11-30T09:39:41;36.00;;;19.93;;
13197;SDS011;6664;52.514;13.440;2022-11-30T09:45:45;33.40;;;17.50;;
13197;SDS011;6664;52.514;13.440;2022-11-30T09:51:42;33.80;;;18.77;;
13197;SDS011;6664;52.514;13.440;2022-11-30T09:54:31;34.43;;;17.60;;
13197;SDS011;6664;52.514;13.440;2022-11-30T10:00:16;37.63;;;19.17;;
13197;SDS011;6664;52.514;13.440;2022-11-30T10:03:09;35.07;;;19.50;;
13197;SDS011;6664;52.514;13.440;2022-11-30T10:08:59;40.37;;;20.50;;
13197;SDS011;6664;52.514;13.440;2022-11-30T10:15:39;35.87;;;18.77;;
13197;SDS011;6664;52.514;13.440;2022-11-30T10:24:31;38.37;;;19.47;;
13197;SDS011;6664;52.514;13.440;2022-11-30T10:30:35;30.70;;;16.97;;
13197;SDS011;6664;52.514;13.440;2022-11-30T10:33:26;35.63;;;18.73;;
13197;SDS011;6664;52.514;13.440;2022-11-30T10:39:26;29.47;;;16.70;;
13197;SDS011;6664;52.514;13.440;2022-11-30T10:42:19;29.70;;;16.77;;
13197;SDS011;6664;52.514;13.440;2022-11-30T10:45:20;33.90;;;19.00;;
13197;SDS011;6664;52.514;13.440;2022-11-30T10:48:19;30.77;;;17.13;;
13197;SDS011;6664;52.514;13.440;2022-11-30T10:51:15;33.53;;;18.87;;
13197;SDS011;6664;52.514;13.440;2022-11-30T10:54:01;34.10;;;18.10;;
13197;SDS011;6664;52.514;13.440;2022-11-30T10:57:01;30.87;;;17.87;;
13197;SDS011;6664;52.514;13.440;2022-11-30T10:59:52;35.20;;;18.70;;
13197;SDS011;6664;52.514;13.440;2022-11-30T11:02:43;40.33;;;20.70;;
13197;SDS011;6664;52.514;13.440;2022-11-30T11:05:34;35.60;;;17.77;;
13197;SDS011;6664;52.514;13.440;2022-11-30T11:08:24;40.30;;;19.90;;
13197;SDS011;6664;52.514;13.440;2022-11-30T11:11:26;32.00;;;17.63;;
13197;SDS011;6664;52.514;13.440;2022-11-30T11:14:22;38.40;;;18.60;;
13197;SDS011;6664;52.514;13.440;2022-11-30T11:20:05;36.83;;;18.73;;
13197;SDS011;6664;52.514;13.440;2022-11-30T11:23:20;30.60;;;17.87;;
13197;SDS011;6664;52.514;13.440;2022-11-30T11:26:24;30.23;;;17.83;;
13197;SDS011;6664;52.514;13.440;2022-11-30T11:29:11;36.07;;;18.73;;
13197;SDS011;6664;52.514;13.440;2022-11-30T11:32:18;34.70;;;16.80;;
13197;SDS011;6664;52.514;13.440;2022-11-30T11:41:28;38.23;;;19.83;;
13197;SDS011;6664;52.514;13.440;2022-11-30T11:44:18;37.43;;;20.03;;
13197;SDS011;6664;52.514;13.440;2022-11-30T11:47:06;33.50;;;18.87;;
13197;SDS011;6664;52.514;13.440;2022-11-30T11:50:20;30.73;;;18.50;;
13197;SDS011;6664;52.514;13.440;2022-11-30T11:56:37;29.57;;;18.83;;
13197;SDS011;6664;52.514;13.440;2022-11-30T12:02:26;40.13;;;19.60;;
13197;SDS011;6664;52.514;13.440;2022-11-30T12:14:07;37.53;;;19.80;;
13197;SDS011;6664;52.514;13.440;2022-11-30T12:20:04;35.30;;;19.50;;
13197;SDS011;6664;52.514;13.440;2022-11-30T12:26:39;34.70;;;19.70;;
13197;SDS011;6664;52.514;13.440;2022-11-30T12:36:06;38.20;;;20.60;;
13197;SDS011;6664;52.514;13.440;2022-11-30T12:39:34;40.27;;;21.37;;
13197;SDS011;6664;52.514;13.440;2022-11-30T12:42:39;39.00;;;21.37;;
13197;SDS011;6664;52.514;13.440;2022-11-30T12:48:20;45.40;;;24.33;;
13197;SDS011;6664;52.514;13.440;2022-11-30T12:54:38;40.27;;;22.37;;
13197;SDS011;6664;52.514;13.440;2022-11-30T13:00:49;45.70;;;24.10;;
13197;SDS011;6664;52.514;13.440;2022-11-30T13:03:57;42.10;;;22.40;;
13197;SDS011;6664;52.514;13.440;2022-11-30T13:06:59;42.90;;;23.33;;
13197;SDS011;6664;52.514;13.440;2022-11-30T13:10:12;44.57;;;21.10;;
13197;SDS011;6664;52.514;13.440;2022-11-30T13:13:01;41.03;;;23.63;;
13197;SDS011;6664;52.514;13.440;2022-11-30T13:15:48;44.07;;;22.00;;
13197;SDS011;6664;52.514;13.440;2022-11-30T13:18:34;43.13;;;21.57;;
13197;SDS011;6664;52.514;13.440;2022-11-30T13:21:26;40.13;;;21.50;;
13197;SDS011;6664;52.514;13.440;2022-11-30T13:24:20;43.33;;;21.97;;
13197;SDS011;6664;52.514;13.440;2022-11-30T13:27:13;35.70;;;20.97;;
13197;SDS011;6664;52.514;13.440;2022-11-30T13:30:26;38.73;;;20.97;;
13197;SDS011;6664;52.514;13.440;2022-11-30T13:36:35;43.30;;;20.90;;
13197;SDS011;6664;52.514;13.440;2022-11-30T13:42:36;43.63;;;21.67;;
13197;SDS011;6664;52.514;13.440;2022-11-30T13:45:33;44.50;;;22.17;;
13197;SDS011;6664;52.514;13.440;2022-11-30T13:48:38;43.13;;;21.60;;
13197;SDS011;6664;52.514;13.440;2022-11-30T13:51:32;44.63;;;21.60;;
13197;SDS011;6664;52.514;13.440;2022-11-30T13:58:01;46.17;;;21.80;;
13197;SDS011;6664;52.514;13.440;2022-11-30T14:03:28;52.97;;;22.70;;
13197;SDS011;6664;52.514;13.440;2022-11-30T14:15:28;45.00;;;22.33;;
13197;SDS011;6664;52.514;13.440;2022-11-30T14:18:43;54.10;;;23.03;;
13197;SDS011;6664;52.514;13.440;2022-11-30T14:21:31;55.73;;;25.10;;
13197;SDS011;6664;52.514;13.440;2022-11-30T14:24:19;50.63;;;23.37;;
13197;SDS011;6664;52.514;13.440;2022-11-30T14:27:08;51.73;;;25.03;;
13197;SDS011;6664;52.514;13.440;2022-11-30T14:30:01;55.33;;;24.03;;
13197;SDS011;6664;52.514;13.440;2022-11-30T14:32:50;47.90;;;22.50;;
13197;SDS011;6664;52.514;13.440;2022-11-30T14:35:41;49.63;;;24.57;;
13197;SDS011;6664;52.514;13.440;2022-11-30T14:38:28;54.60;;;23.87;;
13197;SDS011;6664;52.514;13.440;2022-11-30T14:41:19;48.40;;;23.13;;
13197;SDS011;6664;52.514;13.440;2022-11-30T14:44:14;50.30;;;23.20;;
13197;SDS011;6664;52.514;13.440;2022-11-30T14:47:19;55.40;;;24.73;;
13197;SDS011;6664;52.514;13.440;2022-11-30T14:50:12;63.30;;;25.00;;
13197;SDS011;6664;52.514;13.440;2022-11-30T14:53:21;56.57;;;24.87;;
13197;SDS011;6664;52.514;13.440;2022-11-30T14:56:23;52.53;;;23.73;;
13197;SDS011;6664;52.514;13.440;2022-11-30T14:59:27;59.93;;;23.70;;
13197;SDS011;6664;52.514;13.440;2022-11-30T15:02:35;64.70;;;24.67;;
13197;SDS011;6664;52.514;13.440;2022-11-30T15:05:23;55.40;;;23.30;;
13197;SDS011;6664;52.514;13.440;2022-11-30T15:08:12;43.80;;;21.27;;
13197;SDS011;6664;52.514;13.440;2022-11-30T15:11:04;47.37;;;21.10;;
13197;SDS011;6664;52.514;13.440;2022-11-30T15:13:52;46.27;;;20.67;;
13197;SDS011;6664;52.514;13.440;2022-11-30T15:16:51;53.93;;;23.03;;
13197;SDS011;6664;52.514;13.440;2022-11-30T15:19:45;57.70;;;19.80;;
13197;SDS011;6664;52.514;13.440;2022-11-30T15:22:33;57.60;;;23.30;;
13197;SDS011;6664;52.514;13.440;2022-11-30T15:25:19;49.97;;;20.87;;
13197;SDS011;6664;52.514;13.440;2022-11-30T15:28:09;54.50;;;21.40;;
13197;SDS011;6664;52.514;13.440;2022-11-30T15:31:00;54.60;;;22.90;;
13197;SDS011;6664;52.514;13.440;2022-11-30T15:33:48;46.67;;;21.80;;
13197;SDS011;6664;52.514;13.440;2022-11-30T15:36:35;60.73;;;23.30;;
13197;SDS011;6664;52.514;13.440;2022-11-30T15:39:22;55.03;;;21.70;;
13197;SDS011;6664;52.514;13.440;2022-11-30T15:42:32;53.53;;;22.37;;
13197;SDS011;6664;52.514;13.440;2022-11-30T15:45:26;49.77;;;20.30;;
13197;SDS011;6664;52.514;13.440;2022-11-30T15:48:34;42.77;;;20.93;;
13197;SDS011;6664;52.514;13.440;2022-11-30T15:51:22;51.53;;;20.40;;
13197;SDS011;6664;52.514;13.440;2022-11-30T15:54:08;50.30;;;22.00;;
13197;SDS011;6664;52.514;13.440;2022-11-30T15:56:54;53.73;;;22.27;;
13197;SDS011;6664;52.514;13.440;2022-11-30T16:00:04;52.60;;;22.60;;
13197;SDS011;6664;52.514;13.440;2022-11-30T16:03:09;55.93;;;20.77;;
13197;SDS011;6664;52.514;13.440;2022-11-30T16:05:57;51.33;;;20.77;;
13197;SDS011;6664;52.514;13.440;2022-11-30T16:08:49;58.07;;;20.80;;
13197;SDS011;6664;52.514;13.440;2022-11-30T16:11:35;55.97;;;22.23;;
13197;SDS011;6664;52.514;13.440;2022-11-30T16:14:23;50.10;;;19.77;;
13197;SDS011;6664;52.514;13.440;2022-11-30T16:17:11;52.40;;;20.07;;
13197;SDS011;6664;52.514;13.440;2022-11-30T16:19:57;52.37;;;22.30;;
13197;SDS011;6664;52.514;13.440;2022-11-30T16:22:44;53.77;;;21.80;;
13197;SDS011;6664;52.514;13.440;2022-11-30T16:25:33;59.53;;;21.70;;
13197;SDS011;6664;52.514;13.440;2022-11-30T16:28:18;47.13;;;20.90;;
13197;SDS011;6664;52.514;13.440;2022-11-30T16:31:15;50.73;;;20.10;;
13197;SDS011;6664;52.514;13.440;2022-11-30T16:34:03;53.00;;;22.87;;
13197;SDS011;6664;52.514;13.440;2022-11-30T16:36:52;46.50;;;20.87;;
13197;SDS011;6664;52.514;13.440;2022-11-30T16:39:38;52.47;;;21.57;;
13197;SDS011;6664;52.514;13.440;2022-11-30T16:42:23;54.83;;;20.43;;
13197;SDS011;6664;52.514;13.440;2022-11-30T16:45:13;54.77;;;21.90;;
13197;SDS011;6664;52.514;13.440;2022-11-30T16:48:03;53.50;;;21.70;;
13197;SDS011;6664;52.514;13.440;2022-11-30T16:50:49;40.60;;;19.23;;
13197;SDS011;6664;52.514;13.440;2022-11-30T16:53:37;49.63;;;19.93;;
13197;SDS011;6664;52.514;13.440;2022-11-30T16:56:23;48.40;;;19.40;;
13197;SDS011;6664;52.514;13.440;2022-11-30T16:59:11;50.80;;;20.43;;
13197;SDS011;6664;52.514;13.440;2022-11-30T17:02:01;59.80;;;22.70;;
13197;SDS011;6664;52.514;13.440;2022-11-30T17:04:47;45.47;;;21.10;;
13197;SDS011;6664;52.514;13.440;2022-11-30T17:07:33;51.60;;;21.10;;
13197;SDS011;6664;52.514;13.440;2022-11-30T17:10:21;50.90;;;22.90;;
13197;SDS011;6664;52.514;13.440;2022-11-30T17:13:11;50.40;;;20.13;;
13197;SDS011;6664;52.514;13.440;2022-11-30T17:16:02;48.07;;;21.03;;
13197;SDS011;6664;52.514;13.440;2022-11-30T17:18:49;60.00;;;20.70;;
13197;SDS011;6664;52.514;13.440;2022-11-30T17:21:36;43.57;;;18.87;;
13197;SDS011;6664;52.514;13.440;2022-11-30T17:24:22;50.47;;;19.43;;
13197;SDS011;6664;52.514;13.440;2022-11-30T17:27:10;49.60;;;19.83;;
13197;SDS011;6664;52.514;13.440;2022-11-30T17:29:58;56.13;;;21.93;;
13197;SDS011;6664;52.514;13.440;2022-11-30T17:32:45;60.03;;;21.60;;
13197;SDS011;6664;52.514;13.440;2022-11-30T17:35:31;52.07;;;19.37;;
13197;SDS011;6664;52.514;13.440;2022-11-30T17:38:25;52.33;;;22.00;;
13197;SDS011;6664;52.514;13.440;2022-11-30T17:41:12;52.37;;;21.33;;
13197;SDS011;6664;52.514;13.440;2022-11-30T17:44:03;64.73;;;21.57;;
13197;SDS011;6664;52.514;13.440;2022-11-30T17:46:50;57.53;;;21.30;;
13197;SDS011;6664;52.514;13.440;2022-11-30T17:49:36;60.23;;;24.17;;
13197;SDS011;6664;52.514;13.440;2022-11-30T17:52:21;60.13;;;21.27;;
13197;SDS011;6664;52.514;13.440;2022-11-30T17:55:07;60.93;;;21.13;;
13197;SDS011;6664;52.514;13.440;2022-11-30T17:57:53;48.93;;;21.33;;
13197;SDS011;6664;52.514;13.440;2022-11-30T18:00:38;50.40;;;22.70;;
13197;SDS011;6664;52.514;13.440;2022-11-30T18:03:26;45.67;;;20.07;;
13197;SDS011;6664;52.514;13.440;2022-11-30T18:06:16;62.80;;;21.27;;
13197;SDS011;6664;52.514;13.440;2022-11-30T18:09:05;63.30;;;23.23;;
13197;SDS011;6664;52.514;13.440;2022-11-30T18:11:51;45.73;;;21.10;;
13197;SDS011;6664;52.514;13.440;2022-11-30T18:14:37;50.80;;;20.47;;
13197;SDS011;6664;52.514;13.440;2022-11-30T18:17:24;43.90;;;19.80;;